createdAt,value
2023-01-03T00:01:50.305Z,1.42
2023-01-03T00:04:18.746Z,1.67
2023-01-03T00:06:51.505Z,1.70
2023-01-03T00:09:21.967Z,1.65
2023-01-03T00:12:09.546Z,1.72
2023-01-03T00:14:40.300Z,1.48
2023-01-03T00:17:09.272Z,1.45
2023-01-03T00:19:42.968Z,1.45
2023-01-03T00:22:12.147Z,0.88
2023-01-03T00:24:40.285Z,1.03
2023-01-03T00:27:08.498Z,1.18
2023-01-03T00:29:36.856Z,1.11
2023-01-03T00:32:04.886Z,1.16
2023-01-03T00:34:32.157Z,0.82
2023-01-03T00:36:59.994Z,0.97
2023-01-03T00:39:27.943Z,1.07
2023-01-03T00:41:55.272Z,1.23
2023-01-03T00:44:22.653Z,0.93
2023-01-03T00:46:50.205Z,0.85
2023-01-03T00:49:17.710Z,1.02
2023-01-03T00:51:45.586Z,1.09
2023-01-03T00:54:14.581Z,1.05
2023-01-03T00:56:44.242Z,1.01
2023-01-03T00:59:12.884Z,0.93
2023-01-03T01:01:48.467Z,0.92
2023-01-03T01:04:22.560Z,1.06
2023-01-03T01:06:56.301Z,0.88
2023-01-03T01:09:29.287Z,0.92
2023-01-03T01:11:57.064Z,0.83
2023-01-03T01:14:27.552Z,0.87
2023-01-03T01:17:02.213Z,0.98
2023-01-03T01:19:36.292Z,1.01
2023-01-03T01:22:04.091Z,1.06
2023-01-03T01:24:31.705Z,1.00
2023-01-03T01:26:59.713Z,0.98
2023-01-03T01:29:26.942Z,0.97
2023-01-03T01:31:54.678Z,0.93
2023-01-03T01:34:22.178Z,0.89
2023-01-03T01:36:49.697Z,0.78
2023-01-03T01:39:20.562Z,0.83
2023-01-03T01:42:08.383Z,0.90
2023-01-03T01:44:54.198Z,0.83
2023-01-03T01:47:40.321Z,0.68
2023-01-03T01:50:31.910Z,0.63
2023-01-03T01:53:10.928Z,0.69
2023-01-03T01:55:43.829Z,0.68
2023-01-03T01:58:12.893Z,0.72
2023-01-03T02:00:41.423Z,0.41
2023-01-03T02:03:09.890Z,0.58
2023-01-03T02:05:42.059Z,0.59
2023-01-03T02:08:09.231Z,0.55
2023-01-03T02:10:42.449Z,0.57
2023-01-03T02:13:18.928Z,0.46
2023-01-03T02:16:13.198Z,0.43
2023-01-03T02:18:47.714Z,0.38
2023-01-03T02:21:50.411Z,0.54
2023-01-03T02:24:27.016Z,0.57
2023-01-03T02:27:10.037Z,0.61
2023-01-03T02:30:09.793Z,0.58
2023-01-03T02:32:45.259Z,0.45
2023-01-03T02:35:25.094Z,0.57
2023-01-03T02:37:58.463Z,0.61
2023-01-03T02:40:37.786Z,0.50
2023-01-03T02:43:16.620Z,0.48
2023-01-03T02:46:10.876Z,0.35
2023-01-03T02:48:46.695Z,0.41
2023-01-03T02:51:40.195Z,0.42
2023-01-03T02:54:10.859Z,0.43
2023-01-03T02:56:51.565Z,0.42
2023-01-03T02:59:37.034Z,0.35
2023-01-03T03:02:05.729Z,0.29
2023-01-03T03:04:36.500Z,0.22
2023-01-03T03:07:17.871Z,0.22
2023-01-03T03:10:04.459Z,0.14
2023-01-03T03:12:52.244Z,0.17
2023-01-03T03:15:24.169Z,0.12
2023-01-03T03:17:58.092Z,0.20
2023-01-03T03:20:44.262Z,0.08
2023-01-03T03:23:34.787Z,0.25
2023-01-03T03:26:10.139Z,0.25
2023-01-03T03:28:39.689Z,0.12
2023-01-03T03:31:25.156Z,0.20
2023-01-03T03:33:56.581Z,0.32
2023-01-03T03:36:26.929Z,0.17
2023-01-03T03:38:54.522Z,0.17
2023-01-03T03:42:09.503Z,0.06
2023-01-03T03:45:02.196Z,0.10
2023-01-03T03:47:34.252Z,-0.03
2023-01-03T03:50:07.785Z,-0.10
2023-01-03T03:52:36.733Z,-0.04
2023-01-03T03:55:12.119Z,-0.11
2023-01-03T03:57:53.145Z,-0.07
2023-01-03T04:00:24.714Z,-0.14
2023-01-03T04:02:55.864Z,-0.10
2023-01-03T04:05:27.965Z,0.00
2023-01-03T04:07:55.706Z,-0.10
2023-01-03T04:10:23.935Z,-0.33
2023-01-03T04:12:52.570Z,-0.39
2023-01-03T04:15:20.432Z,-0.25
2023-01-03T04:17:47.800Z,-0.17
2023-01-03T04:20:15.660Z,-0.22
2023-01-03T04:22:43.919Z,-0.29
2023-01-03T04:25:11.625Z,-0.28
2023-01-03T04:27:39.007Z,-0.27
2023-01-03T04:30:11.638Z,-0.23
2023-01-03T04:32:39.386Z,-0.13
2023-01-03T04:35:07.411Z,-0.01
2023-01-03T04:37:35.588Z,-0.05
2023-01-03T04:40:04.119Z,-0.19
2023-01-03T04:42:50.317Z,-0.14
2023-01-03T04:45:18.226Z,-0.01
2023-01-03T04:47:46.396Z,0.07
2023-01-03T04:50:14.038Z,0.02
2023-01-03T04:52:41.915Z,-0.04
2023-01-03T04:55:10.320Z,-0.05
2023-01-03T04:57:37.799Z,-0.02
2023-01-03T05:00:06.522Z,0.04
2023-01-03T05:02:34.206Z,0.12
2023-01-03T05:05:01.530Z,-0.02
2023-01-03T05:07:29.308Z,-0.13
2023-01-03T05:09:57.055Z,-0.21
2023-01-03T05:12:24.407Z,-0.18
2023-01-03T05:14:52.613Z,-0.23
2023-01-03T05:17:22.964Z,-0.32
2023-01-03T05:20:09.783Z,-0.33
2023-01-03T05:22:56.533Z,-0.29
2023-01-03T05:25:43.224Z,-0.10
2023-01-03T05:28:17.063Z,-0.05
2023-01-03T05:30:45.032Z,-0.13
2023-01-03T05:33:14.097Z,-0.07
2023-01-03T05:35:41.916Z,-0.02
2023-01-03T05:38:09.234Z,-0.30
2023-01-03T05:40:41.203Z,-0.19
2023-01-03T05:43:09.020Z,-0.15
2023-01-03T05:45:38.194Z,-0.06
2023-01-03T05:48:06.935Z,-0.19
2023-01-03T05:50:34.826Z,-0.22
2023-01-03T05:53:03.951Z,-0.34
2023-01-03T05:55:31.367Z,-0.22
2023-01-03T05:57:58.895Z,-0.27
2023-01-03T06:00:26.469Z,-0.17
2023-01-03T06:02:54.339Z,-0.11
2023-01-03T06:05:21.809Z,0.13
2023-01-03T06:07:49.610Z,-0.04
2023-01-03T06:10:17.306Z,0.10
2023-01-03T06:12:44.693Z,0.06
2023-01-03T06:15:12.033Z,0.18
2023-01-03T06:18:00.275Z,0.08
2023-01-03T06:20:28.049Z,0.27
2023-01-03T06:22:55.901Z,0.23
2023-01-03T06:25:23.250Z,0.23
2023-01-03T06:27:50.634Z,0.17
2023-01-03T06:30:18.525Z,0.20
2023-01-03T06:32:48.666Z,0.32
2023-01-03T06:35:15.941Z,0.31
2023-01-03T06:37:43.857Z,0.47
2023-01-03T06:40:11.517Z,0.52
2023-01-03T06:42:45.137Z,0.57
2023-01-03T06:45:33.337Z,0.66
2023-01-03T06:48:26.683Z,0.77
2023-01-03T06:51:13.422Z,0.44
2023-01-03T06:53:43.360Z,0.61
2023-01-03T06:56:10.887Z,0.53
2023-01-03T06:58:39.513Z,0.59
2023-01-03T07:01:07.088Z,0.55
2023-01-03T07:03:35.083Z,0.64
2023-01-03T07:06:03.193Z,0.74
2023-01-03T07:08:30.529Z,0.74
2023-01-03T07:10:59.071Z,0.74
2023-01-03T07:13:45.237Z,0.63
2023-01-03T07:16:18.229Z,0.59
2023-01-03T07:18:54.440Z,0.79
2023-01-03T07:21:27.725Z,0.80
2023-01-03T07:24:02.544Z,0.91
2023-01-03T07:26:32.358Z,0.90
2023-01-03T07:29:00.151Z,0.86
2023-01-03T07:31:27.779Z,0.80
2023-01-03T07:33:55.684Z,0.88
2023-01-03T07:36:23.072Z,0.74
2023-01-03T07:38:50.375Z,0.97
2023-01-03T07:41:21.037Z,1.02
2023-01-03T07:43:49.654Z,1.14
2023-01-03T07:46:18.417Z,1.19
2023-01-03T07:48:48.652Z,1.27
2023-01-03T07:51:19.002Z,1.31
2023-01-03T07:53:50.019Z,0.99
2023-01-03T07:56:22.098Z,0.85
2023-01-03T07:58:52.188Z,1.15
2023-01-03T08:01:24.569Z,1.45
2023-01-03T08:03:53.675Z,1.59
2023-01-03T08:06:24.208Z,1.77
2023-01-03T08:09:12.139Z,1.86
2023-01-03T08:11:58.486Z,1.81
2023-01-03T08:14:27.392Z,1.86
2023-01-03T08:16:56.051Z,2.33
2023-01-03T08:19:25.358Z,2.59
2023-01-03T08:21:53.171Z,2.76
2023-01-03T08:24:20.681Z,2.97
2023-01-03T08:26:48.597Z,3.31
2023-01-03T08:29:16.419Z,3.52
2023-01-03T08:31:54.707Z,3.79
2023-01-03T08:34:29.430Z,3.98
2023-01-03T08:37:03.756Z,3.90
2023-01-03T08:39:39.431Z,4.11
2023-01-03T08:42:08.962Z,4.45
2023-01-03T08:44:37.559Z,4.75
2023-01-03T08:47:08.866Z,4.87
2023-01-03T08:49:37.511Z,4.94
2023-01-03T08:52:05.293Z,5.13
2023-01-03T08:54:32.888Z,5.36
2023-01-03T08:57:00.442Z,5.55
2023-01-03T08:59:27.774Z,5.68
2023-01-03T09:01:59.402Z,5.86
2023-01-03T09:04:27.158Z,5.71
2023-01-03T09:06:54.400Z,5.96
2023-01-03T09:09:21.633Z,6.45
2023-01-03T09:11:49.932Z,6.13
2023-01-03T09:14:17.472Z,6.57
2023-01-03T09:16:48.927Z,6.99
2023-01-03T09:19:17.728Z,7.24
2023-01-03T09:21:45.114Z,7.44
2023-01-03T09:24:12.584Z,7.70
2023-01-03T09:26:41.913Z,8.04
2023-01-03T09:29:09.321Z,8.05
2023-01-03T09:31:39.935Z,8.28
2023-01-03T09:34:08.279Z,8.36
2023-01-03T09:36:38.667Z,8.92
2023-01-03T09:39:07.448Z,9.06
2023-01-03T09:41:39.591Z,9.21
2023-01-03T09:44:09.273Z,9.85
2023-01-03T09:46:37.913Z,9.72
2023-01-03T09:49:07.489Z,9.87
2023-01-03T09:51:57.500Z,10.23
2023-01-03T09:54:46.471Z,10.35
2023-01-03T09:57:53.836Z,10.75
2023-01-03T10:00:51.554Z,11.11
2023-01-03T10:03:50.500Z,10.85
2023-01-03T10:06:43.977Z,10.77
2023-01-03T10:09:43.129Z,11.65
2023-01-03T10:12:29.273Z,12.04
2023-01-03T10:15:03.073Z,12.39
2023-01-03T10:17:48.879Z,12.53
2023-01-03T10:20:27.817Z,12.73
2023-01-03T10:22:58.565Z,13.32
2023-01-03T10:25:29.328Z,13.50
2023-01-03T10:28:04.655Z,13.69
2023-01-03T10:30:35.181Z,13.85
2023-01-03T10:33:29.670Z,14.02
2023-01-03T10:35:57.519Z,14.17
2023-01-03T10:38:26.039Z,14.65
2023-01-03T10:41:01.721Z,14.79
2023-01-03T10:43:44.198Z,14.97
2023-01-03T10:46:17.792Z,15.19
2023-01-03T10:51:50.847Z,15.35
2023-01-03T10:54:18.629Z,15.48
2023-01-03T10:56:47.826Z,15.61
2023-01-03T10:59:26.165Z,16.03
2023-01-03T11:02:16.940Z,15.86
2023-01-03T11:04:44.922Z,15.79
2023-01-03T11:07:17.163Z,15.84
2023-01-03T11:09:51.191Z,15.95
2023-01-03T11:12:30.490Z,16.14
2023-01-03T11:14:58.476Z,16.13
2023-01-03T11:17:27.086Z,16.13
2023-01-03T11:19:55.711Z,16.28
2023-01-03T11:22:49.237Z,16.61
2023-01-03T11:25:30.572Z,16.54
2023-01-03T11:28:03.975Z,16.70
2023-01-03T11:30:51.046Z,16.84
2023-01-03T11:33:37.012Z,16.70
2023-01-03T11:36:15.837Z,16.72
2023-01-03T11:39:16.986Z,16.97
2023-01-03T11:41:56.210Z,16.97
2023-01-03T11:44:48.395Z,16.83
2023-01-03T11:47:42.624Z,16.87
2023-01-03T11:50:28.770Z,17.03
2023-01-03T11:53:02.296Z,16.97
2023-01-03T11:56:05.331Z,17.16
2023-01-03T11:58:45.438Z,17.68
2023-01-03T12:01:47.277Z,17.91
2023-01-03T12:04:48.105Z,17.95
2023-01-03T12:10:22.882Z,18.36
2023-01-03T12:12:59.465Z,18.15
2023-01-03T12:15:49.781Z,18.44
2023-01-03T12:18:25.395Z,18.34
2023-01-03T12:21:07.851Z,18.71
2023-01-03T12:23:47.847Z,19.53
2023-01-03T12:26:17.695Z,19.36
2023-01-03T12:28:48.323Z,19.60
2023-01-03T12:31:32.066Z,19.81
2023-01-03T12:34:12.339Z,20.31
2023-01-03T12:36:53.725Z,20.41
2023-01-03T12:39:42.537Z,20.62
2023-01-03T12:42:51.546Z,20.85
2023-01-03T12:45:34.581Z,20.60
2023-01-03T12:48:17.658Z,20.94
2023-01-03T12:50:50.265Z,21.27
2023-01-03T12:53:46.777Z,21.14
2023-01-03T12:56:39.658Z,21.24
2023-01-03T12:59:36.957Z,21.50
2023-01-03T13:02:29.025Z,21.72
2023-01-03T13:05:16.151Z,22.22
2023-01-03T13:07:51.592Z,21.60
2023-01-03T13:10:23.899Z,22.49
2023-01-03T13:12:55.332Z,22.57
2023-01-03T13:15:37.548Z,23.51
2023-01-03T13:18:23.575Z,23.25
2023-01-03T13:20:53.125Z,24.19
2023-01-03T13:23:35.979Z,24.52
2023-01-03T13:26:06.673Z,24.35
2023-01-03T13:28:36.349Z,24.58
2023-01-03T13:31:19.163Z,25.06
2023-01-03T13:33:53.859Z,25.67
2023-01-03T13:36:22.642Z,24.66
2023-01-03T13:38:52.305Z,24.00
2023-01-03T13:41:37.494Z,22.00
2023-01-03T13:44:25.391Z,19.93
2023-01-03T13:46:52.855Z,18.66
2023-01-03T13:49:27.004Z,17.99
2023-01-03T13:51:57.394Z,17.36
2023-01-03T13:54:36.874Z,16.51
2023-01-03T13:57:07.124Z,15.99
2023-01-03T13:59:42.843Z,15.86
2023-01-03T14:02:10.626Z,15.76
2023-01-03T14:05:14.349Z,15.53
2023-01-03T14:08:03.186Z,15.30
2023-01-03T14:10:32.956Z,14.98
2023-01-03T14:13:28.063Z,15.03
2023-01-03T14:16:14.446Z,14.77
2023-01-03T14:19:05.963Z,14.82
2023-01-03T14:22:21.137Z,14.71
2023-01-03T14:24:52.047Z,14.67
2023-01-03T14:27:22.344Z,14.48
2023-01-03T14:29:53.373Z,14.47
2023-01-03T14:32:30.416Z,14.37
2023-01-03T14:35:03.767Z,14.43
2023-01-03T14:37:33.360Z,14.33
2023-01-03T14:40:06.463Z,14.18
2023-01-03T14:42:34.403Z,14.17
2023-01-03T14:45:05.358Z,14.09
2023-01-03T14:47:40.747Z,13.81
2023-01-03T14:50:30.157Z,13.80
2023-01-03T14:52:58.939Z,13.66
2023-01-03T14:55:30.330Z,13.49
2023-01-03T14:57:58.545Z,13.47
2023-01-03T15:00:33.250Z,13.37
2023-01-03T15:03:04.845Z,13.35
2023-01-03T15:05:41.048Z,13.14
2023-01-03T15:08:26.529Z,13.07
2023-01-03T15:10:59.917Z,12.86
2023-01-03T15:13:36.741Z,12.84
2023-01-03T15:16:07.576Z,12.66
2023-01-03T15:18:40.076Z,12.50
2023-01-03T15:21:07.679Z,12.57
2023-01-03T15:23:42.390Z,12.50
2023-01-03T15:26:24.628Z,12.47
2023-01-03T15:29:05.530Z,12.57
2023-01-03T15:31:37.333Z,12.38
2023-01-03T15:34:15.465Z,12.24
2023-01-03T15:36:46.883Z,12.06
2023-01-03T15:39:21.437Z,11.84
2023-01-03T15:44:56.432Z,11.63
2023-01-03T15:47:29.854Z,11.33
2023-01-03T15:50:00.768Z,11.28
2023-01-03T15:52:28.417Z,11.16
2023-01-03T15:54:55.779Z,11.01
2023-01-03T15:57:29.983Z,10.62
2023-01-03T16:00:02.102Z,10.63
2023-01-03T16:02:32.562Z,10.70
2023-01-03T16:05:00.235Z,10.57
2023-01-03T16:07:27.983Z,10.49
2023-01-03T16:09:55.411Z,10.44
2023-01-03T16:12:31.768Z,10.30
2023-01-03T16:14:59.670Z,10.21
2023-01-03T16:17:28.796Z,10.10
2023-01-03T16:19:58.977Z,10.01
2023-01-03T16:22:35.697Z,10.19
2023-01-03T16:25:04.834Z,10.00
2023-01-03T16:27:32.602Z,9.82
2023-01-03T16:29:59.960Z,9.70
2023-01-03T16:32:30.009Z,9.57
2023-01-03T16:35:03.706Z,9.50
2023-01-03T16:37:31.121Z,9.37
2023-01-03T16:39:59.218Z,9.42
2023-01-03T16:42:29.378Z,9.42
2023-01-03T16:44:57.142Z,9.32
2023-01-03T16:47:31.239Z,9.17
2023-01-03T16:50:02.788Z,9.07
2023-01-03T16:52:39.263Z,9.07
2023-01-03T16:55:18.931Z,9.10
2023-01-03T16:57:53.593Z,9.01
2023-01-03T17:00:24.274Z,8.82
2023-01-03T17:02:52.321Z,8.78
2023-01-03T17:05:19.792Z,8.68
2023-01-03T17:07:49.291Z,8.60
2023-01-03T17:10:35.719Z,8.49
2023-01-03T17:13:10.444Z,8.52
2023-01-03T17:15:41.842Z,8.22
2023-01-03T17:18:20.062Z,8.23
2023-01-03T17:21:00.407Z,8.20
2023-01-03T17:23:30.458Z,8.17
2023-01-03T17:25:58.350Z,8.10
2023-01-03T17:28:26.168Z,7.99
2023-01-03T17:30:56.826Z,7.86
2023-01-03T17:33:31.993Z,8.04
2023-01-03T17:36:01.471Z,7.73
2023-01-03T17:38:33.204Z,7.62
2023-01-03T17:41:01.828Z,7.67
2023-01-03T17:43:30.248Z,7.53
2023-01-03T17:46:23.510Z,7.58
2023-01-03T17:49:11.777Z,7.36
2023-01-03T17:51:39.722Z,7.33
2023-01-03T17:54:10.088Z,7.35
2023-01-03T17:56:37.609Z,7.21
2023-01-03T17:59:05.326Z,7.06
2023-01-03T18:01:34.265Z,7.08
2023-01-03T18:04:02.554Z,7.15
2023-01-03T18:06:30.480Z,7.19
2023-01-03T18:09:00.018Z,6.96
2023-01-03T18:11:27.734Z,6.98
2023-01-03T18:13:55.678Z,6.91
2023-01-03T18:16:24.236Z,6.77
2023-01-03T18:18:55.653Z,6.76
2023-01-03T18:21:27.992Z,6.65
2023-01-03T18:24:20.443Z,6.51
2023-01-03T18:26:52.551Z,6.34
2023-01-03T18:29:21.806Z,6.22
2023-01-03T18:31:50.289Z,6.20
2023-01-03T18:34:18.173Z,6.39
2023-01-03T18:36:51.090Z,6.36
2023-01-03T18:39:29.805Z,5.99
2023-01-03T18:42:17.246Z,6.21
2023-01-03T18:44:44.685Z,6.12
2023-01-03T18:47:13.983Z,6.01
2023-01-03T18:49:41.602Z,5.91
2023-01-03T18:52:32.110Z,6.08
2023-01-03T18:55:01.363Z,5.87
2023-01-03T18:57:29.452Z,5.78
2023-01-03T18:59:57.727Z,5.87
2023-01-03T19:02:26.750Z,5.63
2023-01-03T19:04:54.337Z,5.68
2023-01-03T19:07:32.137Z,5.60
2023-01-03T19:10:00.931Z,5.63
2023-01-03T19:12:31.301Z,5.55
2023-01-03T19:14:58.591Z,5.48
2023-01-03T19:17:26.313Z,5.42
2023-01-03T19:19:53.580Z,5.32
2023-01-03T19:22:29.394Z,5.25
2023-01-03T19:25:01.991Z,5.37
2023-01-03T19:27:38.219Z,5.27
2023-01-03T19:30:14.541Z,5.21
2023-01-03T19:32:42.297Z,5.40
2023-01-03T19:35:18.312Z,5.38
2023-01-03T19:37:45.878Z,5.11
2023-01-03T19:40:15.535Z,4.96
2023-01-03T19:42:47.615Z,5.04
2023-01-03T19:45:19.854Z,4.99
2023-01-03T19:47:47.543Z,5.09
2023-01-03T19:50:24.646Z,5.07
2023-01-03T19:52:53.974Z,4.94
2023-01-03T19:55:32.543Z,4.93
2023-01-03T19:58:10.511Z,4.91
2023-01-03T20:00:38.278Z,4.71
2023-01-03T20:03:15.028Z,4.62
2023-01-03T20:05:42.618Z,4.67
2023-01-03T20:08:12.572Z,4.69
2023-01-03T20:10:43.607Z,4.70
2023-01-03T20:13:20.652Z,4.49
2023-01-03T20:15:49.323Z,4.56
2023-01-03T20:18:25.188Z,4.59
2023-01-03T20:20:55.398Z,4.36
2023-01-03T20:23:23.461Z,4.36
2023-01-03T20:25:51.772Z,4.07
2023-01-03T20:28:29.433Z,4.12
2023-01-03T20:30:59.527Z,4.13
2023-01-03T20:33:28.286Z,4.19
2023-01-03T20:36:12.551Z,4.30
2023-01-03T20:38:46.075Z,4.02
2023-01-03T20:41:14.904Z,4.02
2023-01-03T20:43:44.217Z,4.01
2023-01-03T20:46:18.360Z,3.89
2023-01-03T20:48:55.608Z,3.90
2023-01-03T20:51:24.619Z,3.80
2023-01-03T20:53:55.080Z,3.74
2023-01-03T20:56:24.067Z,3.77
2023-01-03T20:58:51.923Z,3.68
2023-01-03T21:01:19.440Z,3.66
2023-01-03T21:03:47.071Z,3.69
2023-01-03T21:06:23.455Z,3.55
2023-01-03T21:08:54.392Z,3.66
2023-01-03T21:11:28.088Z,3.60
2023-01-03T21:13:57.015Z,3.58
2023-01-03T21:16:36.931Z,3.62
2023-01-03T21:19:11.927Z,3.60
2023-01-03T21:21:41.089Z,3.55
2023-01-03T21:24:10.855Z,3.61
2023-01-03T21:26:38.278Z,3.55
2023-01-03T21:29:06.491Z,3.41
2023-01-03T21:31:35.065Z,3.44
2023-01-03T21:34:05.350Z,3.38
2023-01-03T21:36:35.361Z,3.43
2023-01-03T21:39:04.107Z,3.52
2023-01-03T21:41:34.610Z,3.49
2023-01-03T21:44:04.130Z,3.35
2023-01-03T21:46:31.619Z,3.04
2023-01-03T21:48:59.184Z,3.15
2023-01-03T21:51:38.026Z,3.18
2023-01-03T21:54:07.823Z,3.12
2023-01-03T21:56:44.704Z,3.13
2023-01-03T21:59:16.805Z,3.18
2023-01-03T22:02:06.889Z,3.14
2023-01-03T22:04:34.992Z,3.08
2023-01-03T22:07:02.563Z,3.17
2023-01-03T22:09:49.648Z,3.15
2023-01-03T22:12:18.686Z,3.06
2023-01-03T22:14:46.761Z,3.27
2023-01-03T22:17:14.911Z,3.37
2023-01-03T22:19:42.528Z,3.29
2023-01-03T22:22:10.451Z,3.21
2023-01-03T22:24:37.746Z,3.09
2023-01-03T22:27:05.601Z,3.02
2023-01-03T22:29:32.933Z,2.94
2023-01-03T22:32:00.297Z,2.88
2023-01-03T22:34:28.055Z,2.86
2023-01-03T22:36:55.332Z,2.85
2023-01-03T22:39:22.571Z,2.93
2023-01-03T22:41:50.222Z,2.72
2023-01-03T22:44:17.520Z,2.81
2023-01-03T22:46:44.769Z,2.79
2023-01-03T22:49:12.433Z,2.82
2023-01-03T22:51:39.927Z,2.68
2023-01-03T22:54:07.464Z,2.44
2023-01-03T22:56:35.146Z,2.48
2023-01-03T22:59:02.625Z,2.63
2023-01-03T23:01:30.330Z,2.64
2023-01-03T23:04:03.850Z,2.78
2023-01-03T23:06:32.436Z,2.83
2023-01-03T23:09:01.474Z,2.82
2023-01-03T23:11:49.790Z,2.78
2023-01-03T23:14:22.683Z,2.76
2023-01-03T23:16:51.495Z,2.81
2023-01-03T23:19:23.857Z,2.72
2023-01-03T23:21:53.126Z,2.71
2023-01-03T23:24:25.313Z,2.83
2023-01-03T23:26:53.671Z,2.70
2023-01-03T23:29:21.992Z,2.70
2023-01-03T23:31:49.424Z,2.64
2023-01-03T23:34:16.642Z,2.62
2023-01-03T23:36:44.614Z,2.76
2023-01-03T23:39:17.461Z,2.45
2023-01-03T23:41:46.058Z,2.49
2023-01-03T23:44:13.605Z,2.55
2023-01-03T23:46:41.596Z,2.25
2023-01-03T23:49:11.597Z,2.35
2023-01-03T23:51:38.963Z,2.19
2023-01-03T23:54:06.247Z,2.29
2023-01-03T23:56:34.027Z,2.08
2023-01-03T23:59:01.281Z,1.99
